sensor_id;sensor_type;location;lat;lon;timestamp;pressure;altitude;pressure_sealevel;temperature;humidity
50430;BME280;36359;41.556;-8.418;2023-09-08T00:00:00;100092.31;;;22.43;94.80
50430;BME280;36359;41.556;-8.418;2023-09-08T00:02:27;100090.22;;;22.57;92.53
50430;BME280;36359;41.556;-8.418;2023-09-08T00:07:22;100089.16;;;22.70;92.05
50430;BME280;36359;41.556;-8.418;2023-09-08T00:09:47;100084.72;;;22.99;89.38
50430;BME280;36359;41.556;-8.418;2023-09-08T00:12:13;100094.00;;;23.16;88.40
50430;BME280;36359;41.556;-8.418;2023-09-08T00:14:39;100089.19;;;23.23;87.44
50430;BME280;36359;41.556;-8.418;2023-09-08T00:17:05;100085.88;;;23.45;86.24
50430;BME280;36359;41.556;-8.418;2023-09-08T00:19:30;100084.63;;;23.52;85.83
50430;BME280;36359;41.556;-8.418;2023-09-08T00:21:56;100082.25;;;23.56;85.62
50430;BME280;36359;41.556;-8.418;2023-09-08T00:24:22;100086.19;;;23.25;88.09
50430;BME280;36359;41.556;-8.418;2023-09-08T00:26:48;100084.75;;;23.22;87.58
50430;BME280;36359;41.556;-8.418;2023-09-08T00:29:13;100084.84;;;23.04;88.87
50430;BME280;36359;41.556;-8.418;2023-09-08T00:31:40;100078.50;;;22.85;90.14
50430;BME280;36359;41.556;-8.418;2023-09-08T00:34:06;100081.66;;;22.88;89.85
50430;BME280;36359;41.556;-8.418;2023-09-08T00:36:32;100083.97;;;22.92;90.07
50430;BME280;36359;41.556;-8.418;2023-09-08T00:38:58;100086.38;;;22.58;91.98
50430;BME280;36359;41.556;-8.418;2023-09-08T00:41:23;100082.03;;;22.50;92.60
50430;BME280;36359;41.556;-8.418;2023-09-08T00:43:50;100082.47;;;22.47;92.41
50430;BME280;36359;41.556;-8.418;2023-09-08T00:46:16;100076.84;;;22.84;90.18
50430;BME280;36359;41.556;-8.418;2023-09-08T00:48:42;100079.19;;;22.99;89.05
50430;BME280;36359;41.556;-8.418;2023-09-08T00:51:08;100078.47;;;23.03;88.69
50430;BME280;36359;41.556;-8.418;2023-09-08T00:53:36;100077.66;;;23.26;87.23
50430;BME280;36359;41.556;-8.418;2023-09-08T00:56:02;100070.44;;;23.37;86.57
50430;BME280;36359;41.556;-8.418;2023-09-08T00:58:29;100073.84;;;22.85;88.68
50430;BME280;36359;41.556;-8.418;2023-09-08T01:00:55;100065.97;;;23.01;88.48
50430;BME280;36359;41.556;-8.418;2023-09-08T01:03:24;100063.31;;;23.06;87.89
50430;BME280;36359;41.556;-8.418;2023-09-08T01:05:49;100052.03;;;22.65;89.68
50430;BME280;36359;41.556;-8.418;2023-09-08T01:08:16;100050.34;;;22.76;89.20
50430;BME280;36359;41.556;-8.418;2023-09-08T01:10:42;100056.28;;;22.92;88.82
50430;BME280;36359;41.556;-8.418;2023-09-08T01:13:08;100041.78;;;22.66;89.72
50430;BME280;36359;41.556;-8.418;2023-09-08T01:15:34;100043.63;;;22.84;88.37
50430;BME280;36359;41.556;-8.418;2023-09-08T01:18:00;100035.00;;;22.02;93.63
50430;BME280;36359;41.556;-8.418;2023-09-08T01:23:24;100036.22;;;22.06;94.10
50430;BME280;36359;41.556;-8.418;2023-09-08T01:25:59;100027.53;;;21.53;98.18
50430;BME280;36359;41.556;-8.418;2023-09-08T01:28:28;100016.28;;;21.30;100.00
50430;BME280;36359;41.556;-8.418;2023-09-08T01:30:55;100013.56;;;21.48;99.21
50430;BME280;36359;41.556;-8.418;2023-09-08T01:33:22;100019.81;;;21.37;100.00
50430;BME280;36359;41.556;-8.418;2023-09-08T01:35:48;100014.09;;;21.32;100.00
50430;BME280;36359;41.556;-8.418;2023-09-08T01:38:14;100014.56;;;21.29;100.00
50430;BME280;36359;41.556;-8.418;2023-09-08T01:40:40;100012.63;;;21.54;99.84
50430;BME280;36359;41.556;-8.418;2023-09-08T01:43:06;100012.28;;;21.99;96.36
50430;BME280;36359;41.556;-8.418;2023-09-08T01:45:31;100003.63;;;22.44;92.99
50430;BME280;36359;41.556;-8.418;2023-09-08T01:47:57;100004.03;;;22.60;91.94
50430;BME280;36359;41.556;-8.418;2023-09-08T01:50:23;100008.59;;;22.54;91.51
50430;BME280;36359;41.556;-8.418;2023-09-08T01:52:50;99999.84;;;22.27;93.16
50430;BME280;36359;41.556;-8.418;2023-09-08T01:55:16;99990.81;;;22.02;93.97
50430;BME280;36359;41.556;-8.418;2023-09-08T01:57:43;99987.88;;;22.15;94.28
50430;BME280;36359;41.556;-8.418;2023-09-08T02:00:10;99990.47;;;22.28;92.92
50430;BME280;36359;41.556;-8.418;2023-09-08T02:02:39;99982.72;;;22.49;92.01
50430;BME280;36359;41.556;-8.418;2023-09-08T02:05:06;99990.28;;;22.41;91.40
50430;BME280;36359;41.556;-8.418;2023-09-08T02:07:32;99984.88;;;21.68;95.61
50430;BME280;36359;41.556;-8.418;2023-09-08T02:09:58;99982.91;;;21.57;96.69
50430;BME280;36359;41.556;-8.418;2023-09-08T02:12:23;99979.66;;;21.41;97.26
50430;BME280;36359;41.556;-8.418;2023-09-08T02:14:49;99978.44;;;21.37;97.93
50430;BME280;36359;41.556;-8.418;2023-09-08T02:17:15;99973.06;;;21.61;97.59
50430;BME280;36359;41.556;-8.418;2023-09-08T02:19:40;99983.97;;;22.04;95.23
50430;BME280;36359;41.556;-8.418;2023-09-08T02:22:06;99977.44;;;22.17;93.81
50430;BME280;36359;41.556;-8.418;2023-09-08T02:24:32;99969.56;;;22.02;93.52
50430;BME280;36359;41.556;-8.418;2023-09-08T02:26:57;99969.13;;;21.87;94.46
50430;BME280;36359;41.556;-8.418;2023-09-08T02:29:24;99965.78;;;21.66;94.22
50430;BME280;36359;41.556;-8.418;2023-09-08T02:31:50;99963.22;;;21.65;96.27
50430;BME280;36359;41.556;-8.418;2023-09-08T02:34:15;99958.19;;;21.80;94.12
50430;BME280;36359;41.556;-8.418;2023-09-08T02:36:42;99951.81;;;21.24;97.58
50430;BME280;36359;41.556;-8.418;2023-09-08T02:39:08;99947.13;;;20.81;100.00
50430;BME280;36359;41.556;-8.418;2023-09-08T02:41:34;99950.25;;;21.10;99.46
50430;BME280;36359;41.556;-8.418;2023-09-08T02:44:02;99949.00;;;21.06;99.53
50430;BME280;36359;41.556;-8.418;2023-09-08T02:46:27;99957.88;;;21.51;97.93
50430;BME280;36359;41.556;-8.418;2023-09-08T02:48:54;99947.78;;;21.94;95.71
50430;BME280;36359;41.556;-8.418;2023-09-08T02:51:19;99962.03;;;22.39;92.50
50430;BME280;36359;41.556;-8.418;2023-09-08T02:53:45;99953.75;;;22.39;89.96
50430;BME280;36359;41.556;-8.418;2023-09-08T02:56:11;99951.94;;;22.45;90.30
50430;BME280;36359;41.556;-8.418;2023-09-08T02:58:37;99951.13;;;22.44;90.63
50430;BME280;36359;41.556;-8.418;2023-09-08T03:01:16;99951.84;;;22.52;88.71
50430;BME280;36359;41.556;-8.418;2023-09-08T03:03:46;99953.69;;;21.97;90.55
50430;BME280;36359;41.556;-8.418;2023-09-08T03:06:15;99940.47;;;21.32;94.41
50430;BME280;36359;41.556;-8.418;2023-09-08T03:08:41;99945.72;;;20.97;97.12
50430;BME280;36359;41.556;-8.418;2023-09-08T03:11:07;99945.28;;;21.00;97.89
50430;BME280;36359;41.556;-8.418;2023-09-08T03:13:34;99932.44;;;21.06;98.09
50430;BME280;36359;41.556;-8.418;2023-09-08T03:16:04;99936.72;;;21.27;98.28
50430;BME280;36359;41.556;-8.418;2023-09-08T03:18:30;99925.34;;;21.17;97.17
50430;BME280;36359;41.556;-8.418;2023-09-08T03:20:58;99924.69;;;21.21;98.26
50430;BME280;36359;41.556;-8.418;2023-09-08T03:23:24;99929.34;;;21.58;96.01
50430;BME280;36359;41.556;-8.418;2023-09-08T03:25:50;99924.03;;;21.44;95.79
50430;BME280;36359;41.556;-8.418;2023-09-08T03:28:16;99920.53;;;21.49;95.82
50430;BME280;36359;41.556;-8.418;2023-09-08T03:30:41;99911.56;;;21.17;96.62
50430;BME280;36359;41.556;-8.418;2023-09-08T03:33:07;99913.84;;;20.83;98.98
50430;BME280;36359;41.556;-8.418;2023-09-08T03:35:34;99920.38;;;20.63;100.00
50430;BME280;36359;41.556;-8.418;2023-09-08T03:38:00;99915.22;;;20.92;99.96
50430;BME280;36359;41.556;-8.418;2023-09-08T03:40:26;99914.56;;;20.72;100.00
50430;BME280;36359;41.556;-8.418;2023-09-08T03:42:53;99917.16;;;20.67;100.00
50430;BME280;36359;41.556;-8.418;2023-09-08T03:45:18;99922.88;;;20.90;100.00
50430;BME280;36359;41.556;-8.418;2023-09-08T03:47:44;99924.16;;;21.49;96.90
50430;BME280;36359;41.556;-8.418;2023-09-08T03:50:10;99922.06;;;21.63;94.25
50430;BME280;36359;41.556;-8.418;2023-09-08T03:52:36;99916.81;;;21.73;94.78
50430;BME280;36359;41.556;-8.418;2023-09-08T03:55:01;99917.28;;;22.19;92.85
50430;BME280;36359;41.556;-8.418;2023-09-08T03:57:27;99917.91;;;22.21;91.45
50430;BME280;36359;41.556;-8.418;2023-09-08T03:59:53;99917.66;;;22.34;90.71
50430;BME280;36359;41.556;-8.418;2023-09-08T04:02:18;99903.38;;;22.49;89.67
50430;BME280;36359;41.556;-8.418;2023-09-08T04:04:45;99904.22;;;22.50;89.53
50430;BME280;36359;41.556;-8.418;2023-09-08T04:07:10;99898.84;;;22.55;88.71
50430;BME280;36359;41.556;-8.418;2023-09-08T04:09:36;99906.13;;;22.37;88.28
50430;BME280;36359;41.556;-8.418;2023-09-08T04:12:02;99902.88;;;22.29;88.40
50430;BME280;36359;41.556;-8.418;2023-09-08T04:14:29;99899.47;;;22.15;89.77
50430;BME280;36359;41.556;-8.418;2023-09-08T04:16:55;99905.13;;;21.90;91.12
50430;BME280;36359;41.556;-8.418;2023-09-08T04:19:21;99897.31;;;21.38;92.99
50430;BME280;36359;41.556;-8.418;2023-09-08T04:21:47;99896.84;;;21.04;94.95
50430;BME280;36359;41.556;-8.418;2023-09-08T04:24:12;99905.16;;;20.79;96.87
50430;BME280;36359;41.556;-8.418;2023-09-08T04:26:38;99896.63;;;21.24;96.54
50430;BME280;36359;41.556;-8.418;2023-09-08T04:29:04;99907.91;;;21.60;94.73
50430;BME280;36359;41.556;-8.418;2023-09-08T04:31:30;99909.63;;;22.03;92.16
50430;BME280;36359;41.556;-8.418;2023-09-08T04:33:56;99903.63;;;21.45;92.94
50430;BME280;36359;41.556;-8.418;2023-09-08T04:36:22;99900.03;;;21.75;92.49
50430;BME280;36359;41.556;-8.418;2023-09-08T04:38:47;99905.13;;;21.60;91.91
50430;BME280;36359;41.556;-8.418;2023-09-08T04:41:13;99906.19;;;21.22;93.35
50430;BME280;36359;41.556;-8.418;2023-09-08T04:43:39;99905.25;;;20.91;95.30
50430;BME280;36359;41.556;-8.418;2023-09-08T04:46:05;99908.72;;;20.61;97.69
50430;BME280;36359;41.556;-8.418;2023-09-08T04:48:31;99909.03;;;20.53;98.52
50430;BME280;36359;41.556;-8.418;2023-09-08T04:53:22;99909.91;;;20.40;99.33
50430;BME280;36359;41.556;-8.418;2023-09-08T04:55:48;99914.84;;;20.32;100.00
50430;BME280;36359;41.556;-8.418;2023-09-08T04:58:14;99912.69;;;20.91;99.17
50430;BME280;36359;41.556;-8.418;2023-09-08T05:00:40;99909.50;;;21.12;95.54
50430;BME280;36359;41.556;-8.418;2023-09-08T05:03:08;99919.19;;;20.96;95.11
50430;BME280;36359;41.556;-8.418;2023-09-08T05:05:34;99924.41;;;20.86;96.30
50430;BME280;36359;41.556;-8.418;2023-09-08T05:07:59;99920.00;;;21.40;94.64
50430;BME280;36359;41.556;-8.418;2023-09-08T05:10:25;99936.19;;;21.85;92.65
50430;BME280;36359;41.556;-8.418;2023-09-08T05:12:52;99932.75;;;21.60;91.72
50430;BME280;36359;41.556;-8.418;2023-09-08T05:15:19;99930.09;;;21.65;91.58
50430;BME280;36359;41.556;-8.418;2023-09-08T05:17:49;99935.78;;;21.70;92.82
50430;BME280;36359;41.556;-8.418;2023-09-08T05:20:18;99936.13;;;21.92;91.76
50430;BME280;36359;41.556;-8.418;2023-09-08T05:22:43;99944.66;;;22.20;90.33
50430;BME280;36359;41.556;-8.418;2023-09-08T05:25:10;99938.66;;;21.93;89.70
50430;BME280;36359;41.556;-8.418;2023-09-08T05:27:36;99943.13;;;21.76;89.29
50430;BME280;36359;41.556;-8.418;2023-09-08T05:30:03;99933.13;;;21.93;91.24
50430;BME280;36359;41.556;-8.418;2023-09-08T05:32:31;99932.47;;;22.10;89.31
50430;BME280;36359;41.556;-8.418;2023-09-08T05:34:57;99928.16;;;21.53;91.26
50430;BME280;36359;41.556;-8.418;2023-09-08T05:37:23;99919.38;;;21.01;93.69
50430;BME280;36359;41.556;-8.418;2023-09-08T05:39:49;99914.28;;;20.80;95.12
50430;BME280;36359;41.556;-8.418;2023-09-08T05:42:15;99923.13;;;21.25;94.88
50430;BME280;36359;41.556;-8.418;2023-09-08T05:44:41;99936.78;;;21.75;92.57
50430;BME280;36359;41.556;-8.418;2023-09-08T05:47:07;99939.31;;;22.07;90.21
50430;BME280;36359;41.556;-8.418;2023-09-08T05:49:32;99934.94;;;22.18;89.17
50430;BME280;36359;41.556;-8.418;2023-09-08T05:51:58;99934.16;;;21.81;89.83
50430;BME280;36359;41.556;-8.418;2023-09-08T05:54:24;99938.44;;;21.76;90.42
50430;BME280;36359;41.556;-8.418;2023-09-08T05:56:50;99943.06;;;21.64;91.21
50430;BME280;36359;41.556;-8.418;2023-09-08T05:59:16;99951.97;;;21.66;92.00
50430;BME280;36359;41.556;-8.418;2023-09-08T06:01:42;99948.38;;;21.96;90.40
50430;BME280;36359;41.556;-8.418;2023-09-08T06:04:09;99953.50;;;22.11;89.73
50430;BME280;36359;41.556;-8.418;2023-09-08T06:06:35;99946.03;;;22.30;88.02
50430;BME280;36359;41.556;-8.418;2023-09-08T06:09:01;99959.97;;;22.05;88.53
50430;BME280;36359;41.556;-8.418;2023-09-08T06:11:27;99965.94;;;22.20;88.50
50430;BME280;36359;41.556;-8.418;2023-09-08T06:13:53;99973.78;;;22.35;87.26
50430;BME280;36359;41.556;-8.418;2023-09-08T06:16:26;99973.09;;;21.91;89.07
50430;BME280;36359;41.556;-8.418;2023-09-08T06:18:51;99976.38;;;21.99;89.91
50430;BME280;36359;41.556;-8.418;2023-09-08T06:21:19;99972.75;;;22.17;88.04
50430;BME280;36359;41.556;-8.418;2023-09-08T06:23:45;99989.41;;;22.41;87.22
50430;BME280;36359;41.556;-8.418;2023-09-08T06:26:12;99983.06;;;22.40;85.98
50430;BME280;36359;41.556;-8.418;2023-09-08T06:28:38;99974.59;;;21.57;88.59
50430;BME280;36359;41.556;-8.418;2023-09-08T06:31:07;99978.81;;;20.97;93.06
50430;BME280;36359;41.556;-8.418;2023-09-08T06:33:34;99980.94;;;20.95;95.34
50430;BME280;36359;41.556;-8.418;2023-09-08T06:36:00;99982.03;;;20.94;94.63
50430;BME280;36359;41.556;-8.418;2023-09-08T06:38:26;99984.84;;;21.31;93.96
50430;BME280;36359;41.556;-8.418;2023-09-08T06:40:51;99981.41;;;21.72;91.82
50430;BME280;36359;41.556;-8.418;2023-09-08T06:43:19;99999.25;;;22.07;89.59
50430;BME280;36359;41.556;-8.418;2023-09-08T06:46:05;100000.09;;;22.07;89.00
50430;BME280;36359;41.556;-8.418;2023-09-08T06:48:32;100000.41;;;21.99;88.73
50430;BME280;36359;41.556;-8.418;2023-09-08T06:50:58;100004.28;;;21.43;92.18
50430;BME280;36359;41.556;-8.418;2023-09-08T06:53:25;100010.22;;;20.96;94.63
50430;BME280;36359;41.556;-8.418;2023-09-08T06:55:51;100009.53;;;20.76;96.53
50430;BME280;36359;41.556;-8.418;2023-09-08T06:58:16;100016.66;;;20.58;98.31
50430;BME280;36359;41.556;-8.418;2023-09-08T07:00:43;100014.69;;;20.34;100.00
50430;BME280;36359;41.556;-8.418;2023-09-08T07:03:08;100012.72;;;20.41;100.00
50430;BME280;36359;41.556;-8.418;2023-09-08T07:05:34;100017.38;;;20.47;100.00
50430;BME280;36359;41.556;-8.418;2023-09-08T07:08:01;100016.59;;;20.33;100.00
50430;BME280;36359;41.556;-8.418;2023-09-08T07:10:28;100022.50;;;21.00;97.38
50430;BME280;36359;41.556;-8.418;2023-09-08T07:12:53;100024.88;;;21.59;93.77
50430;BME280;36359;41.556;-8.418;2023-09-08T07:15:19;100027.28;;;21.73;92.52
50430;BME280;36359;41.556;-8.418;2023-09-08T07:17:46;100023.16;;;21.83;92.09
50430;BME280;36359;41.556;-8.418;2023-09-08T07:20:11;100023.66;;;21.54;94.10
50430;BME280;36359;41.556;-8.418;2023-09-08T07:22:37;100024.75;;;21.28;96.11
50430;BME280;36359;41.556;-8.418;2023-09-08T07:25:04;100023.47;;;21.06;97.31
50430;BME280;36359;41.556;-8.418;2023-09-08T07:27:30;100030.13;;;20.98;98.54
50430;BME280;36359;41.556;-8.418;2023-09-08T07:29:55;100031.31;;;20.84;99.35
50430;BME280;36359;41.556;-8.418;2023-09-08T07:32:24;100034.59;;;20.68;100.00
50430;BME280;36359;41.556;-8.418;2023-09-08T07:34:50;100036.75;;;20.66;100.00
50430;BME280;36359;41.556;-8.418;2023-09-08T07:37:22;100034.59;;;20.68;100.00
50430;BME280;36359;41.556;-8.418;2023-09-08T07:39:49;100035.41;;;20.75;100.00
50430;BME280;36359;41.556;-8.418;2023-09-08T07:42:15;100034.53;;;20.81;100.00
50430;BME280;36359;41.556;-8.418;2023-09-08T07:44:40;100034.09;;;21.09;99.22
50430;BME280;36359;41.556;-8.418;2023-09-08T07:47:06;100033.53;;;21.00;100.00
50430;BME280;36359;41.556;-8.418;2023-09-08T07:49:35;100026.56;;;21.16;100.00
50430;BME280;36359;41.556;-8.418;2023-09-08T07:52:01;100038.41;;;21.67;95.08
50430;BME280;36359;41.556;-8.418;2023-09-08T07:54:27;100037.25;;;21.56;96.34
50430;BME280;36359;41.556;-8.418;2023-09-08T07:56:52;100030.72;;;21.25;97.56
50430;BME280;36359;41.556;-8.418;2023-09-08T07:59:18;100030.19;;;21.35;97.22
50430;BME280;36359;41.556;-8.418;2023-09-08T08:01:44;100027.34;;;21.23;97.61
50430;BME280;36359;41.556;-8.418;2023-09-08T08:04:09;100033.78;;;21.17;98.18
50430;BME280;36359;41.556;-8.418;2023-09-08T08:06:35;100033.41;;;21.14;98.62
50430;BME280;36359;41.556;-8.418;2023-09-08T08:09:01;100039.53;;;21.16;97.63
50430;BME280;36359;41.556;-8.418;2023-09-08T08:11:26;100029.00;;;21.06;99.53
50430;BME280;36359;41.556;-8.418;2023-09-08T08:13:53;100032.63;;;21.06;100.00
50430;BME280;36359;41.556;-8.418;2023-09-08T08:16:19;100036.59;;;21.10;100.00
50430;BME280;36359;41.556;-8.418;2023-09-08T08:18:47;100033.78;;;21.17;100.00
50430;BME280;36359;41.556;-8.418;2023-09-08T08:21:13;100034.63;;;21.18;100.00
50430;BME280;36359;41.556;-8.418;2023-09-08T08:23:39;100025.28;;;21.19;100.00
50430;BME280;36359;41.556;-8.418;2023-09-08T08:26:04;100028.03;;;21.44;97.34
50430;BME280;36359;41.556;-8.418;2023-09-08T08:28:30;100028.47;;;21.41;97.26
50430;BME280;36359;41.556;-8.418;2023-09-08T08:30:56;100030.63;;;21.14;98.54
50430;BME280;36359;41.556;-8.418;2023-09-08T08:33:22;100037.00;;;21.14;98.30
50430;BME280;36359;41.556;-8.418;2023-09-08T08:35:49;100028.22;;;21.24;98.14
50430;BME280;36359;41.556;-8.418;2023-09-08T08:38:15;100033.88;;;21.29;97.92
50430;BME280;36359;41.556;-8.418;2023-09-08T08:40:41;100034.25;;;21.76;95.46
50430;BME280;36359;41.556;-8.418;2023-09-08T08:43:07;100035.47;;;21.62;96.23
50430;BME280;36359;41.556;-8.418;2023-09-08T08:45:34;100038.84;;;22.00;93.22
50430;BME280;36359;41.556;-8.418;2023-09-08T08:48:03;100039.59;;;22.08;94.15
50430;BME280;36359;41.556;-8.418;2023-09-08T08:50:29;100037.63;;;22.15;92.61
50430;BME280;36359;41.556;-8.418;2023-09-08T08:52:57;100038.06;;;22.12;93.49
50430;BME280;36359;41.556;-8.418;2023-09-08T08:55:25;100034.91;;;22.08;93.03
50430;BME280;36359;41.556;-8.418;2023-09-08T08:57:51;100036.16;;;22.12;93.24
50430;BME280;36359;41.556;-8.418;2023-09-08T09:00:18;100034.41;;;22.18;92.57
50430;BME280;36359;41.556;-8.418;2023-09-08T09:02:45;100030.19;;;22.45;91.15
50430;BME280;36359;41.556;-8.418;2023-09-08T09:05:14;100029.38;;;22.57;90.48
50430;BME280;36359;41.556;-8.418;2023-09-08T09:07:41;100033.22;;;22.56;91.50
50430;BME280;36359;41.556;-8.418;2023-09-08T09:10:09;100030.19;;;22.45;91.52
50430;BME280;36359;41.556;-8.418;2023-09-08T09:12:38;100029.13;;;22.58;91.68
50430;BME280;36359;41.556;-8.418;2023-09-08T09:15:05;100022.25;;;22.49;91.93
50430;BME280;36359;41.556;-8.418;2023-09-08T09:17:35;100026.34;;;22.47;91.99
50430;BME280;36359;41.556;-8.418;2023-09-08T09:20:18;100018.47;;;22.32;92.88
50430;BME280;36359;41.556;-8.418;2023-09-08T09:22:46;100021.91;;;22.45;91.63
50430;BME280;36359;41.556;-8.418;2023-09-08T09:25:21;100021.97;;;22.69;89.91
50430;BME280;36359;41.556;-8.418;2023-09-08T09:28:07;100028.47;;;22.75;90.26
50430;BME280;36359;41.556;-8.418;2023-09-08T09:30:47;100028.34;;;22.81;89.42
50430;BME280;36359;41.556;-8.418;2023-09-08T09:33:14;100029.94;;;22.89;90.16
50430;BME280;36359;41.556;-8.418;2023-09-08T09:35:42;100021.41;;;22.90;89.86
50430;BME280;36359;41.556;-8.418;2023-09-08T09:38:08;100016.34;;;22.87;89.89
50430;BME280;36359;41.556;-8.418;2023-09-08T09:40:34;100018.44;;;23.04;88.46
50430;BME280;36359;41.556;-8.418;2023-09-08T09:43:00;100020.91;;;22.94;89.91
50430;BME280;36359;41.556;-8.418;2023-09-08T09:45:26;100016.41;;;23.11;88.79
50430;BME280;36359;41.556;-8.418;2023-09-08T09:47:52;100013.63;;;23.23;87.48
50430;BME280;36359;41.556;-8.418;2023-09-08T09:50:35;100005.59;;;23.21;86.63
50430;BME280;36359;41.556;-8.418;2023-09-08T09:53:08;100002.19;;;23.43;85.13
50430;BME280;36359;41.556;-8.418;2023-09-08T09:55:36;99999.06;;;23.51;84.68
50430;BME280;36359;41.556;-8.418;2023-09-08T09:58:05;100006.13;;;23.58;85.99
50430;BME280;36359;41.556;-8.418;2023-09-08T10:00:31;100005.91;;;23.60;85.11
50430;BME280;36359;41.556;-8.418;2023-09-08T10:02:58;100004.81;;;23.61;85.00
50430;BME280;36359;41.556;-8.418;2023-09-08T10:05:24;99996.97;;;23.82;84.62
50430;BME280;36359;41.556;-8.418;2023-09-08T10:07:51;99999.94;;;24.03;82.67
50430;BME280;36359;41.556;-8.418;2023-09-08T10:10:17;100007.22;;;24.21;80.58
50430;BME280;36359;41.556;-8.418;2023-09-08T10:12:45;99998.50;;;24.30;81.10
50430;BME280;36359;41.556;-8.418;2023-09-08T10:15:12;99991.56;;;24.15;82.55
50430;BME280;36359;41.556;-8.418;2023-09-08T10:17:39;100005.91;;;24.41;80.16
50430;BME280;36359;41.556;-8.418;2023-09-08T10:20:08;99997.09;;;24.44;79.87
50430;BME280;36359;41.556;-8.418;2023-09-08T10:22:42;99999.53;;;24.86;78.19
50430;BME280;36359;41.556;-8.418;2023-09-08T10:25:09;100003.06;;;24.98;76.12
50430;BME280;36359;41.556;-8.418;2023-09-08T10:27:38;100009.94;;;25.12;74.78
50430;BME280;36359;41.556;-8.418;2023-09-08T10:30:06;100016.88;;;25.27;74.35
50430;BME280;36359;41.556;-8.418;2023-09-08T10:32:36;100010.44;;;25.43;72.97
50430;BME280;36359;41.556;-8.418;2023-09-08T10:35:03;100005.47;;;25.45;72.63
50430;BME280;36359;41.556;-8.418;2023-09-08T10:37:30;100001.66;;;25.51;72.32
50430;BME280;36359;41.556;-8.418;2023-09-08T10:39:56;100007.22;;;25.73;71.07
50430;BME280;36359;41.556;-8.418;2023-09-08T10:42:23;99997.94;;;25.63;71.41
50430;BME280;36359;41.556;-8.418;2023-09-08T10:44:58;100003.53;;;25.46;71.86
50430;BME280;36359;41.556;-8.418;2023-09-08T10:47:31;100016.47;;;25.57;70.78
50430;BME280;36359;41.556;-8.418;2023-09-08T10:49:59;100005.88;;;25.54;70.43
50430;BME280;36359;41.556;-8.418;2023-09-08T10:52:25;100008.44;;;25.60;69.06
50430;BME280;36359;41.556;-8.418;2023-09-08T10:54:53;100001.09;;;25.32;71.09
50430;BME280;36359;41.556;-8.418;2023-09-08T10:57:25;100009.59;;;25.26;71.30
50430;BME280;36359;41.556;-8.418;2023-09-08T10:59:56;100011.31;;;25.27;71.61
50430;BME280;36359;41.556;-8.418;2023-09-08T11:02:48;100014.34;;;25.25;71.24
50430;BME280;36359;41.556;-8.418;2023-09-08T11:05:15;100014.66;;;25.29;71.81
50430;BME280;36359;41.556;-8.418;2023-09-08T11:07:42;100010.41;;;25.60;70.46
50430;BME280;36359;41.556;-8.418;2023-09-08T11:10:09;100009.59;;;25.65;69.64
50430;BME280;36359;41.556;-8.418;2023-09-08T11:12:36;100008.53;;;25.66;68.62
50430;BME280;36359;41.556;-8.418;2023-09-08T11:15:03;100007.22;;;25.73;68.99
50430;BME280;36359;41.556;-8.418;2023-09-08T11:17:36;100001.44;;;25.75;69.07
50430;BME280;36359;41.556;-8.418;2023-09-08T11:20:05;99999.78;;;25.79;67.97
50430;BME280;36359;41.556;-8.418;2023-09-08T11:22:37;99992.56;;;25.78;68.39
50430;BME280;36359;41.556;-8.418;2023-09-08T11:25:06;99990.75;;;25.67;68.97
50430;BME280;36359;41.556;-8.418;2023-09-08T11:27:32;99981.06;;;25.69;69.07
50430;BME280;36359;41.556;-8.418;2023-09-08T11:29:58;99985.44;;;26.31;66.62
50430;BME280;36359;41.556;-8.418;2023-09-08T11:32:24;99972.47;;;26.42;65.42
50430;BME280;36359;41.556;-8.418;2023-09-08T11:34:50;99972.88;;;26.50;65.07
50430;BME280;36359;41.556;-8.418;2023-09-08T11:37:17;99976.69;;;26.44;64.69
50430;BME280;36359;41.556;-8.418;2023-09-08T11:39:46;99972.25;;;26.76;64.15
50430;BME280;36359;41.556;-8.418;2023-09-08T11:42:14;99969.22;;;26.50;64.91
50430;BME280;36359;41.556;-8.418;2023-09-08T11:44:41;99960.81;;;26.45;64.84
50430;BME280;36359;41.556;-8.418;2023-09-08T11:47:09;99967.03;;;26.52;64.52
50430;BME280;36359;41.556;-8.418;2023-09-08T11:49:36;99952.41;;;26.67;64.19
50430;BME280;36359;41.556;-8.418;2023-09-08T11:52:03;99947.97;;;26.66;64.13
50430;BME280;36359;41.556;-8.418;2023-09-08T11:54:33;99945.31;;;26.81;63.43
50430;BME280;36359;41.556;-8.418;2023-09-08T11:57:00;99940.19;;;26.68;63.76
50430;BME280;36359;41.556;-8.418;2023-09-08T11:59:27;99934.88;;;26.66;63.79
50430;BME280;36359;41.556;-8.418;2023-09-08T12:01:54;99929.78;;;26.90;60.94
50430;BME280;36359;41.556;-8.418;2023-09-08T12:04:20;99929.00;;;26.95;61.85
50430;BME280;36359;41.556;-8.418;2023-09-08T12:06:48;99931.59;;;27.12;60.62
50430;BME280;36359;41.556;-8.418;2023-09-08T12:09:14;99916.16;;;27.31;60.02
50430;BME280;36359;41.556;-8.418;2023-09-08T12:11:40;99914.03;;;27.11;60.59
50430;BME280;36359;41.556;-8.418;2023-09-08T12:14:11;99909.22;;;27.39;59.82
50430;BME280;36359;41.556;-8.418;2023-09-08T12:16:37;99903.75;;;27.12;61.58
50430;BME280;36359;41.556;-8.418;2023-09-08T12:19:03;99907.59;;;27.01;60.45
50430;BME280;36359;41.556;-8.418;2023-09-08T12:21:28;99914.38;;;26.78;62.09
50430;BME280;36359;41.556;-8.418;2023-09-08T12:23:54;99908.38;;;26.54;63.51
50430;BME280;36359;41.556;-8.418;2023-09-08T12:26:20;99908.25;;;26.76;61.52
50430;BME280;36359;41.556;-8.418;2023-09-08T12:28:47;99911.44;;;26.57;62.86
50430;BME280;36359;41.556;-8.418;2023-09-08T12:31:13;99910.31;;;26.58;61.75
50430;BME280;36359;41.556;-8.418;2023-09-08T12:33:39;99911.75;;;26.61;62.20
50430;BME280;36359;41.556;-8.418;2023-09-08T12:36:18;99897.66;;;26.72;61.80
50430;BME280;36359;41.556;-8.418;2023-09-08T12:38:51;99894.72;;;26.89;61.59
50430;BME280;36359;41.556;-8.418;2023-09-08T12:41:18;99893.59;;;26.90;60.17
50430;BME280;36359;41.556;-8.418;2023-09-08T12:43:44;99891.84;;;27.16;60.37
50430;BME280;36359;41.556;-8.418;2023-09-08T12:46:11;99891.97;;;27.00;60.11
50430;BME280;36359;41.556;-8.418;2023-09-08T12:48:37;99892.13;;;27.20;59.91
50430;BME280;36359;41.556;-8.418;2023-09-08T12:51:03;99894.69;;;27.32;59.48